createdAt,value
2022-09-24T00:03:25.140Z,9.35
2022-09-24T00:08:26.843Z,9.00
2022-09-24T00:13:28.666Z,9.40
2022-09-24T00:18:30.725Z,9.52
2022-09-24T00:23:32.376Z,11.73
2022-09-24T00:28:34.412Z,9.88
2022-09-24T00:33:36.099Z,9.82
2022-09-24T00:38:37.734Z,11.63
2022-09-24T00:43:39.612Z,12.93
2022-09-24T00:48:42.870Z,11.68
2022-09-24T00:53:46.504Z,12.00
2022-09-24T00:58:56.155Z,10.90
2022-09-24T01:03:59.266Z,9.93
2022-09-24T01:09:01.101Z,9.98
2022-09-24T01:14:24.882Z,9.30
2022-09-24T01:19:46.344Z,9.15
2022-09-24T01:24:48.814Z,9.45
2022-09-24T01:30:11.164Z,8.18
2022-09-24T01:35:31.152Z,7.47
2022-09-24T01:40:33.266Z,6.97
2022-09-24T01:45:38.578Z,6.63
2022-09-24T01:50:59.288Z,7.45
2022-09-24T01:56:08.365Z,6.82
2022-09-24T02:01:15.256Z,9.30
2022-09-24T02:06:22.462Z,8.05
2022-09-24T02:11:25.321Z,6.18
2022-09-24T02:16:36.075Z,8.23
2022-09-24T02:21:39.948Z,7.00
2022-09-24T02:26:41.825Z,7.43
2022-09-24T02:31:48.084Z,6.72
2022-09-24T02:36:54.308Z,6.10
2022-09-24T02:41:56.936Z,6.05
2022-09-24T02:46:59.105Z,7.28
2022-09-24T02:52:01.124Z,6.53
2022-09-24T02:57:02.790Z,6.50
2022-09-24T03:02:04.531Z,9.75
2022-09-24T03:07:06.293Z,7.65
2022-09-24T03:12:08.190Z,7.30
2022-09-24T03:17:09.815Z,6.78
2022-09-24T03:22:11.439Z,6.35
2022-09-24T03:27:13.184Z,6.45
2022-09-24T03:32:14.804Z,7.53
2022-09-24T03:37:16.446Z,6.85
2022-09-24T03:42:18.072Z,6.90
2022-09-24T03:47:19.702Z,7.05
2022-09-24T03:52:21.423Z,5.93
2022-09-24T03:57:23.076Z,8.75
2022-09-24T04:02:24.968Z,7.38
2022-09-24T04:07:26.628Z,6.70
2022-09-24T04:12:29.414Z,8.50
2022-09-24T04:17:33.871Z,7.30
2022-09-24T04:22:35.539Z,7.40
2022-09-24T04:27:37.185Z,7.15
2022-09-24T04:32:39.858Z,7.18
2022-09-24T04:37:42.743Z,7.25
2022-09-24T04:42:46.297Z,8.35
2022-09-24T04:47:52.586Z,8.23
2022-09-24T04:52:55.188Z,7.30
2022-09-24T04:57:57.645Z,7.72
2022-09-24T05:03:03.246Z,7.38
2022-09-24T05:08:04.979Z,7.00
2022-09-24T05:13:06.627Z,18.00
2022-09-24T05:18:08.236Z,9.52
2022-09-24T05:23:10.061Z,8.02
2022-09-24T05:28:11.672Z,32.88
2022-09-24T05:33:13.697Z,12.68
2022-09-24T05:38:15.338Z,8.85
2022-09-24T05:43:19.253Z,7.93
2022-09-24T05:48:21.405Z,7.30
2022-09-24T05:53:23.350Z,8.43
2022-09-24T05:58:25.131Z,9.25
2022-09-24T06:03:27.172Z,7.25
2022-09-24T06:08:30.759Z,6.82
2022-09-24T06:13:34.863Z,9.25
2022-09-24T06:18:40.039Z,7.68
2022-09-24T06:23:42.287Z,7.20
2022-09-24T06:28:43.951Z,7.68
2022-09-24T06:33:45.642Z,8.25
2022-09-24T06:38:51.864Z,7.57
2022-09-24T06:43:56.519Z,10.73
2022-09-24T06:48:58.375Z,6.30
2022-09-24T06:53:59.975Z,7.28
2022-09-24T06:59:01.687Z,7.75
2022-09-24T07:04:03.429Z,6.70
2022-09-24T07:09:05.699Z,9.57
2022-09-24T07:14:07.397Z,9.85
2022-09-24T07:19:09.279Z,8.32
2022-09-24T07:24:10.964Z,8.00
2022-09-24T07:29:12.582Z,6.47
2022-09-24T07:34:14.424Z,7.53
2022-09-24T07:39:16.455Z,10.43
2022-09-24T07:44:23.078Z,6.80
2022-09-24T07:49:24.706Z,6.40
2022-09-24T07:54:26.446Z,7.20
2022-09-24T07:59:28.451Z,8.15
2022-09-24T08:04:31.862Z,9.32
2022-09-24T08:09:33.497Z,8.10
2022-09-24T08:14:35.257Z,6.75
2022-09-24T08:19:36.951Z,6.72
2022-09-24T08:24:38.639Z,10.05
2022-09-24T08:29:40.461Z,6.53
2022-09-24T08:34:42.223Z,6.50
2022-09-24T08:39:43.903Z,7.28
2022-09-24T08:45:05.623Z,7.25
2022-09-24T08:50:23.270Z,7.00
2022-09-24T08:55:35.537Z,6.47
2022-09-24T09:00:47.110Z,9.20
2022-09-24T09:05:55.295Z,7.03
2022-09-24T09:11:03.393Z,5.82
2022-09-24T09:16:06.846Z,5.32
2022-09-24T09:21:25.759Z,6.20
2022-09-24T09:26:27.404Z,5.22
2022-09-24T09:31:55.433Z,5.85
2022-09-24T09:37:07.375Z,6.43
2022-09-24T09:42:28.144Z,6.82
2022-09-24T09:47:49.441Z,7.63
2022-09-24T09:52:51.326Z,6.78
2022-09-24T09:57:53.623Z,8.85
2022-09-24T10:02:55.555Z,5.55
2022-09-24T10:08:00.451Z,5.40
2022-09-24T10:13:10.130Z,6.05
2022-09-24T10:18:14.425Z,9.13
2022-09-24T10:23:22.243Z,5.15
2022-09-24T10:28:43.183Z,5.65
2022-09-24T10:33:48.023Z,5.78
2022-09-24T10:38:50.160Z,10.90
2022-09-24T10:43:53.804Z,5.32
2022-09-24T10:49:22.973Z,5.15
2022-09-24T10:54:51.080Z,5.43
2022-09-24T11:00:21.719Z,7.15
2022-09-24T11:05:24.474Z,5.95
2022-09-24T11:11:02.653Z,4.18
2022-09-24T11:16:16.109Z,4.40
2022-09-24T11:21:35.023Z,3.92
2022-09-24T11:27:08.347Z,4.00
2022-09-24T11:32:29.602Z,5.65
2022-09-24T11:37:55.873Z,3.05
2022-09-24T11:43:25.524Z,2.85
2022-09-24T11:48:45.788Z,3.20
2022-09-24T11:54:00.651Z,4.47
2022-09-24T11:59:43.918Z,6.10
2022-09-24T12:04:53.525Z,4.07
2022-09-24T12:10:19.172Z,3.30
2022-09-24T12:15:25.089Z,3.67
2022-09-24T12:20:29.353Z,4.22
2022-09-24T12:25:39.474Z,3.33
2022-09-24T12:31:12.244Z,3.42
2022-09-24T12:36:39.225Z,4.13
2022-09-24T12:41:49.250Z,4.05
2022-09-24T12:47:00.968Z,3.92
2022-09-24T12:52:18.786Z,5.05
2022-09-24T12:57:25.970Z,4.70
2022-09-24T13:02:43.732Z,3.22
2022-09-24T13:08:23.164Z,4.93
2022-09-24T13:13:31.735Z,4.20
2022-09-24T13:18:37.391Z,3.97
2022-09-24T13:23:38.986Z,3.97
2022-09-24T13:29:01.752Z,5.78
2022-09-24T13:34:06.216Z,5.05
2022-09-24T13:39:25.022Z,5.30
2022-09-24T13:44:29.854Z,5.30
2022-09-24T13:49:33.683Z,3.65
2022-09-24T13:54:48.780Z,5.10
2022-09-24T14:00:00.858Z,3.67
2022-09-24T14:05:03.040Z,3.70
2022-09-24T14:10:13.169Z,10.57
2022-09-24T14:15:16.621Z,10.18
2022-09-24T14:20:19.480Z,6.32
2022-09-24T14:25:28.408Z,3.85
2022-09-24T14:30:31.984Z,3.42
2022-09-24T14:35:37.099Z,3.20
2022-09-24T14:40:49.620Z,4.05
2022-09-24T14:45:52.267Z,3.15
2022-09-24T14:50:53.900Z,4.68
2022-09-24T14:55:56.585Z,3.58
2022-09-24T15:01:05.743Z,3.38
2022-09-24T15:06:35.022Z,3.13
2022-09-24T15:11:43.222Z,3.17
2022-09-24T15:16:49.698Z,2.83
2022-09-24T15:21:53.334Z,4.63
2022-09-24T15:27:02.855Z,3.85
2022-09-24T15:32:15.169Z,7.70
2022-09-24T15:37:20.174Z,3.25
2022-09-24T15:42:24.548Z,3.50
2022-09-24T15:47:26.233Z,3.50
2022-09-24T15:52:31.828Z,2.92
2022-09-24T15:57:33.614Z,5.07
2022-09-24T16:02:35.415Z,4.28
2022-09-24T16:07:37.281Z,3.67
2022-09-24T16:12:39.779Z,3.63
2022-09-24T16:17:41.751Z,5.43
2022-09-24T16:22:43.383Z,5.47
2022-09-24T16:27:45.103Z,5.35
2022-09-24T16:32:46.773Z,7.32
2022-09-24T16:37:48.426Z,14.20
2022-09-24T16:42:50.164Z,5.32
2022-09-24T16:47:51.992Z,5.25
2022-09-24T16:52:55.384Z,5.05
2022-09-24T16:57:57.129Z,7.25
2022-09-24T17:02:59.632Z,6.40
2022-09-24T17:08:01.545Z,6.95
2022-09-24T17:13:03.338Z,7.68
2022-09-24T17:18:05.047Z,6.22
2022-09-24T17:23:06.896Z,5.72
2022-09-24T17:28:11.133Z,6.88
2022-09-24T17:33:41.332Z,7.80
2022-09-24T17:38:34.884Z,8.15
2022-09-24T17:43:37.295Z,11.38
2022-09-24T17:48:40.912Z,9.80
2022-09-24T17:53:42.976Z,8.73
2022-09-24T17:58:46.897Z,10.52
2022-09-24T18:03:56.540Z,13.65
2022-09-24T18:08:59.967Z,12.55
2022-09-24T18:14:02.610Z,10.80
2022-09-24T18:19:04.321Z,11.57
2022-09-24T18:24:06.085Z,8.27
2022-09-24T18:29:13.034Z,9.15
2022-09-24T18:34:16.036Z,9.18
2022-09-24T18:39:23.861Z,7.97
2022-09-24T18:44:26.675Z,7.90
2022-09-24T18:49:28.567Z,8.43
2022-09-24T18:54:30.913Z,8.18
2022-09-24T18:59:44.145Z,8.50
2022-09-24T19:04:45.850Z,7.93
2022-09-24T19:09:47.476Z,10.15
2022-09-24T19:14:49.739Z,10.60
2022-09-24T19:19:52.653Z,24.42
2022-09-24T19:24:54.665Z,16.45
2022-09-24T19:29:56.305Z,16.45
2022-09-24T19:34:57.920Z,15.43
2022-09-24T19:39:59.751Z,13.27
2022-09-24T19:45:01.428Z,16.98
2022-09-24T19:50:03.584Z,15.82
2022-09-24T19:55:05.565Z,15.65
2022-09-24T20:00:08.099Z,15.88
2022-09-24T20:05:09.768Z,17.50
2022-09-24T20:10:12.165Z,21.13
2022-09-24T20:15:13.887Z,17.65
2022-09-24T20:20:15.900Z,19.58
2022-09-24T20:25:17.596Z,20.45
2022-09-24T20:30:21.296Z,21.05
2022-09-24T20:35:22.935Z,21.02
2022-09-24T20:40:24.636Z,28.70
2022-09-24T20:45:26.339Z,30.80
2022-09-24T20:50:28.002Z,27.75
2022-09-24T20:55:30.394Z,27.90
2022-09-24T21:00:35.737Z,25.35
2022-09-24T21:05:37.912Z,25.58
2022-09-24T21:10:39.540Z,29.38
2022-09-24T21:15:41.236Z,28.90
2022-09-24T21:20:43.151Z,26.60
2022-09-24T21:25:59.952Z,27.70
2022-09-24T21:31:03.469Z,30.38
2022-09-24T21:36:07.454Z,27.90
2022-09-24T21:41:09.472Z,24.00
2022-09-24T21:46:11.135Z,23.95
2022-09-24T21:51:19.366Z,21.58
2022-09-24T21:56:21.865Z,21.38
2022-09-24T22:01:29.205Z,26.98
2022-09-24T22:06:31.366Z,25.98
2022-09-24T22:11:34.424Z,22.02
2022-09-24T22:16:36.342Z,20.15
2022-09-24T22:21:38.123Z,19.35
2022-09-24T22:26:40.281Z,18.02
2022-09-24T22:31:41.924Z,19.98
2022-09-24T22:36:43.592Z,18.10
2022-09-24T22:41:45.305Z,17.63
2022-09-24T22:46:46.962Z,17.48
2022-09-24T22:51:48.886Z,16.85
2022-09-24T22:56:50.980Z,16.73
2022-09-24T23:01:52.744Z,16.77
2022-09-24T23:06:54.428Z,16.25
2022-09-24T23:11:56.623Z,17.88
2022-09-24T23:16:58.931Z,19.27
2022-09-24T23:22:00.715Z,16.08
2022-09-24T23:27:02.341Z,16.17
2022-09-24T23:32:04.540Z,18.90
2022-09-24T23:37:06.171Z,18.90
2022-09-24T23:42:08.507Z,16.85
2022-09-24T23:47:10.122Z,16.92
2022-09-24T23:52:11.737Z,17.73
2022-09-24T23:57:13.457Z,16.75
